Flugplatz Adolf Würth Airport

Bericht für EDTY

vom 29.05. um 23:20 UTC

Wind 2 kt aus VRB°

Sichtweite 9700 m

bedeckt in 3600 ft

Temperatur 13°C

Taupunkt 13°C

Luftfeuchtigkeit 100%

Luftdruck 1010 hPa

EDTY 292320Z AUTO VRB02KT 9999 // OVC036/// 13/13 Q1010

Prognose für EDTY

vom 29.05. um 17:00 UTC

Am 29.05. zwischen 18:00 UTC und 03:00 UTC

Wind 4 kt aus 210°

Sichtweite 9700 m

aufgelockert bewölkt in 2000 ft


Am 29.05. zwischen 21:00 UTC und 03:00 UTC zeitweise mit einer Wahrscheinlichkeit von 40%

Regen

TAF EDTY 291700Z 2918/3003 21004KT 9999 SCT020 PROB40 TEMPO 2921/3003 RA
Impressum